createdAt,value
2023-01-03T00:02:03.446Z,7.13
2023-01-03T00:07:43.245Z,7.16
2023-01-03T00:13:08.248Z,7.24
2023-01-03T00:18:32.328Z,7.20
2023-01-03T00:24:00.231Z,7.24
2023-01-03T00:29:25.301Z,7.28
2023-01-03T00:34:54.248Z,7.27
2023-01-03T00:40:22.264Z,7.27
2023-01-03T00:45:47.297Z,7.24
2023-01-03T00:51:13.263Z,7.21
2023-01-03T00:56:43.280Z,7.14
2023-01-03T01:02:09.464Z,7.00
2023-01-03T01:07:34.282Z,6.92
2023-01-03T01:13:01.305Z,6.83
2023-01-03T01:18:26.301Z,6.75
2023-01-03T01:23:52.280Z,6.75
2023-01-03T01:29:21.293Z,6.76
2023-01-03T01:34:46.266Z,6.79
2023-01-03T01:40:17.273Z,6.87
2023-01-03T01:45:52.353Z,6.85
2023-01-03T01:51:19.312Z,6.87
2023-01-03T01:56:47.404Z,6.84
2023-01-03T02:02:16.462Z,6.87
2023-01-03T02:07:41.315Z,6.88
2023-01-03T02:13:17.300Z,6.77
2023-01-03T02:18:57.289Z,6.76
2023-01-03T02:24:59.382Z,6.72
2023-01-03T02:30:46.403Z,6.59
2023-01-03T02:36:19.327Z,6.48
2023-01-03T02:41:55.288Z,6.54
2023-01-03T02:47:31.375Z,6.59
2023-01-03T02:53:00.321Z,6.52
2023-01-03T02:58:28.335Z,6.53
2023-01-03T03:03:57.425Z,6.47
2023-01-03T03:09:21.347Z,6.38
2023-01-03T03:14:52.352Z,6.35
2023-01-03T03:20:41.332Z,6.26
2023-01-03T03:26:10.331Z,6.08
2023-01-03T03:31:39.413Z,5.91
2023-01-03T03:37:09.355Z,5.78
2023-01-03T03:42:51.329Z,5.72
2023-01-03T03:48:23.354Z,5.62
2023-01-03T03:53:54.372Z,5.47
2023-01-03T03:59:20.367Z,5.38
2023-01-03T04:04:53.357Z,5.34
2023-01-03T04:10:26.414Z,5.17
2023-01-03T04:15:51.404Z,5.04
2023-01-03T04:21:20.763Z,4.93
2023-01-03T04:26:48.396Z,4.93
2023-01-03T04:32:13.528Z,4.92
2023-01-03T04:37:37.361Z,4.87
2023-01-03T04:43:17.376Z,4.81
2023-01-03T04:48:41.382Z,4.75
2023-01-03T04:54:07.397Z,4.75
2023-01-03T04:59:34.402Z,4.78
2023-01-03T05:04:59.361Z,4.77
2023-01-03T05:10:24.457Z,4.76
2023-01-03T05:15:52.397Z,4.65
2023-01-03T05:21:37.389Z,4.67
2023-01-03T05:27:02.408Z,4.71
2023-01-03T05:32:31.446Z,4.78
2023-01-03T05:37:56.442Z,4.83
2023-01-03T05:43:21.395Z,4.94
2023-01-03T05:48:49.383Z,5.06
2023-01-03T05:54:13.408Z,5.07
2023-01-03T05:59:38.408Z,5.03
2023-01-03T06:05:06.529Z,5.07
2023-01-03T06:10:31.390Z,5.03
2023-01-03T06:16:18.926Z,4.97
2023-01-03T06:21:49.394Z,4.88
2023-01-03T06:27:13.412Z,4.78
2023-01-03T06:32:39.422Z,4.70
2023-01-03T06:38:06.471Z,4.64
2023-01-03T06:43:31.438Z,4.56
2023-01-03T06:49:23.311Z,4.53
2023-01-03T06:54:49.361Z,4.50
2023-01-03T07:00:14.318Z,4.37
2023-01-03T07:05:42.301Z,4.26
2023-01-03T07:11:00.312Z,4.19
2023-01-03T07:16:29.497Z,4.11
2023-01-03T07:21:57.336Z,4.06
2023-01-03T07:27:21.319Z,4.01
2023-01-03T07:32:46.340Z,4.00
2023-01-03T07:38:13.346Z,4.01
2023-01-03T07:43:47.313Z,3.97
2023-01-03T07:49:18.350Z,3.95
2023-01-03T07:54:46.344Z,3.97
2023-01-03T08:00:10.350Z,3.97
2023-01-03T08:05:35.355Z,3.98
2023-01-03T08:11:15.333Z,3.98
2023-01-03T08:16:40.448Z,3.99
2023-01-03T08:22:05.361Z,3.99
2023-01-03T08:27:33.355Z,4.06
2023-01-03T08:32:58.359Z,4.09
2023-01-03T08:38:28.379Z,4.11
2023-01-03T08:43:58.352Z,4.18
2023-01-03T08:49:30.396Z,4.30
2023-01-03T08:54:55.370Z,4.36
2023-01-03T09:00:24.586Z,4.45
2023-01-03T09:05:49.401Z,4.62
2023-01-03T09:11:15.389Z,4.74
2023-01-03T09:16:48.785Z,4.87
2023-01-03T09:22:13.512Z,5.01
2023-01-03T09:27:38.369Z,5.11
2023-01-03T09:33:08.420Z,5.25
2023-01-03T09:38:33.401Z,5.37
2023-01-03T09:44:01.420Z,5.51
2023-01-03T09:49:35.422Z,5.67
2023-01-03T09:55:13.410Z,5.86
2023-01-03T10:00:55.451Z,6.02
2023-01-03T10:06:36.377Z,6.19
2023-01-03T10:12:08.398Z,6.31
2023-01-03T10:17:44.440Z,6.40
2023-01-03T10:23:12.447Z,6.47
2023-01-03T10:28:45.439Z,6.56
2023-01-03T10:34:09.418Z,6.62
2023-01-03T10:39:44.225Z,6.66
2023-01-03T10:45:17.422Z,6.76
2023-01-03T10:50:47.402Z,6.84
2023-01-03T10:56:17.403Z,6.96
2023-01-03T11:01:43.491Z,7.03
2023-01-03T11:07:28.470Z,7.15
2023-01-03T11:12:56.444Z,7.28
2023-01-03T11:18:33.555Z,7.45
2023-01-03T11:24:22.601Z,7.69
2023-01-03T11:30:10.476Z,7.81
2023-01-03T11:35:49.444Z,7.91
2023-01-03T11:41:27.453Z,7.88
2023-01-03T11:47:07.438Z,7.86
2023-01-03T11:52:45.435Z,7.98
2023-01-03T11:58:28.462Z,8.02
2023-01-03T12:04:17.510Z,7.99
2023-01-03T12:09:50.502Z,8.04
2023-01-03T12:15:20.463Z,8.15
2023-01-03T12:21:00.504Z,8.16
2023-01-03T12:26:26.509Z,8.23
2023-01-03T12:31:56.603Z,8.20
2023-01-03T12:37:28.538Z,8.28
2023-01-03T12:43:01.538Z,8.34
2023-01-03T12:48:48.527Z,8.21
2023-01-03T12:54:31.488Z,8.13
2023-01-03T13:00:33.462Z,8.02
2023-01-03T13:06:02.680Z,7.97
2023-01-03T13:11:37.517Z,7.99
2023-01-03T13:17:03.505Z,8.19
2023-01-03T13:22:53.488Z,8.23
2023-01-03T13:28:42.497Z,8.24
2023-01-03T13:34:11.502Z,8.33
2023-01-03T13:39:48.501Z,8.38
2023-01-03T13:45:42.483Z,8.45
2023-01-03T13:51:35.603Z,8.75
2023-01-03T13:57:19.504Z,8.81
2023-01-03T14:03:16.714Z,8.83
2023-01-03T14:09:10.492Z,8.79
2023-01-03T14:14:40.536Z,8.78
2023-01-03T14:20:07.514Z,8.79
2023-01-03T14:25:46.542Z,8.48
2023-01-03T14:31:17.539Z,8.31
2023-01-03T14:36:54.529Z,8.10
2023-01-03T14:42:23.603Z,8.10
2023-01-03T14:47:50.526Z,8.09
2023-01-03T14:53:17.554Z,7.99
2023-01-03T14:58:51.526Z,7.83
2023-01-03T15:04:16.573Z,7.65
2023-01-03T15:09:44.608Z,7.38
2023-01-03T15:15:11.542Z,7.21
2023-01-03T15:20:45.564Z,6.98
2023-01-03T15:26:09.564Z,6.81
2023-01-03T15:31:43.608Z,6.58
2023-01-03T15:37:12.543Z,6.47
2023-01-03T15:42:58.279Z,6.29
2023-01-03T15:48:32.577Z,6.12
2023-01-03T15:53:57.568Z,5.93
2023-01-03T15:59:26.563Z,5.65
2023-01-03T16:04:54.567Z,5.45
2023-01-03T16:10:21.779Z,5.32
2023-01-03T16:15:50.596Z,5.16
2023-01-03T16:21:18.589Z,5.03
2023-01-03T16:26:43.596Z,4.97
2023-01-03T16:32:07.663Z,4.90
2023-01-03T16:37:35.588Z,4.77
2023-01-03T16:43:01.819Z,4.70
2023-01-03T16:48:28.576Z,4.67
2023-01-03T16:53:57.572Z,4.63
2023-01-03T16:59:24.715Z,4.57
2023-01-03T17:04:48.609Z,4.54
2023-01-03T17:10:17.700Z,4.55
2023-01-03T17:15:42.600Z,4.57
2023-01-03T17:21:10.639Z,4.57
2023-01-03T17:26:39.641Z,4.61
2023-01-03T17:32:04.619Z,4.68
2023-01-03T17:37:51.519Z,4.70
2023-01-03T17:43:28.604Z,4.81
2023-01-03T17:49:05.605Z,4.91
2023-01-03T17:54:35.701Z,4.93
2023-01-03T18:00:02.601Z,4.97
2023-01-03T18:05:31.623Z,5.01
2023-01-03T18:10:59.612Z,5.07
2023-01-03T18:16:30.655Z,5.11
2023-01-03T18:21:55.613Z,5.14
2023-01-03T18:27:21.644Z,5.14
2023-01-03T18:32:50.659Z,5.15
2023-01-03T18:38:15.687Z,5.19
2023-01-03T18:43:40.709Z,5.24
2023-01-03T18:49:08.630Z,5.27
2023-01-03T18:54:35.650Z,5.28
2023-01-03T19:00:00.619Z,5.27
2023-01-03T19:05:27.655Z,5.23
2023-01-03T19:10:52.679Z,5.15
2023-01-03T19:16:16.765Z,5.03
2023-01-03T19:21:45.609Z,4.86
2023-01-03T19:27:12.674Z,4.77
2023-01-03T19:32:39.673Z,4.68
2023-01-03T19:38:07.654Z,4.62
2023-01-03T19:43:32.664Z,4.53
2023-01-03T19:48:56.683Z,4.47
2023-01-03T19:54:24.669Z,4.41
2023-01-03T19:59:51.691Z,4.40
2023-01-03T20:05:24.690Z,4.33
2023-01-03T20:10:53.682Z,4.29
2023-01-03T20:16:19.691Z,4.21
2023-01-03T20:21:48.698Z,4.15
2023-01-03T20:27:21.723Z,4.16
2023-01-03T20:32:45.710Z,4.18
2023-01-03T20:38:10.673Z,4.24
2023-01-03T20:43:38.677Z,4.29
2023-01-03T20:49:06.719Z,4.33
2023-01-03T20:54:30.705Z,4.39
2023-01-03T20:59:58.735Z,4.48
2023-01-03T21:05:23.718Z,4.53
2023-01-03T21:10:50.702Z,4.56
2023-01-03T21:16:18.711Z,4.59
2023-01-03T21:21:43.698Z,4.59
2023-01-03T21:27:08.740Z,4.55
2023-01-03T21:32:39.733Z,4.43
2023-01-03T21:38:22.707Z,4.39
2023-01-03T21:43:47.734Z,4.31
2023-01-03T21:49:14.716Z,4.23
2023-01-03T21:54:41.738Z,4.14
2023-01-03T22:00:05.738Z,4.05
2023-01-03T22:05:33.725Z,3.98
2023-01-03T22:10:57.745Z,3.91
2023-01-03T22:16:22.807Z,3.85
2023-01-03T22:21:49.744Z,3.79
2023-01-03T22:27:14.754Z,3.75
2023-01-03T22:32:39.764Z,3.72
2023-01-03T22:38:07.746Z,3.67
2023-01-03T22:43:31.724Z,3.64
2023-01-03T22:48:57.758Z,3.61
2023-01-03T22:54:24.736Z,3.54
2023-01-03T22:59:55.754Z,3.50
2023-01-03T23:05:21.750Z,3.47
2023-01-03T23:10:48.754Z,3.43
2023-01-03T23:16:14.846Z,3.41
2023-01-03T23:21:38.777Z,3.36
2023-01-03T23:27:12.769Z,3.30
2023-01-03T23:32:37.779Z,3.25
2023-01-03T23:38:04.765Z,3.20
2023-01-03T23:43:32.806Z,3.17
2023-01-03T23:48:57.762Z,3.12
2023-01-03T23:54:22.774Z,3.07
2023-01-03T23:59:49.799Z,3.03
